sensor_id;sensor_type;location;lat;lon;timestamp;P1;durP1;ratioP1;P2;durP2;ratioP2
83840;SDS011;73868;52.172;10.668;2024-01-10T00:00:37;20.50;;;11.43;;
83840;SDS011;73868;52.172;10.668;2024-01-10T00:03:03;24.13;;;12.23;;
83840;SDS011;73868;52.172;10.668;2024-01-10T00:05:28;21.07;;;12.30;;
83840;SDS011;73868;52.172;10.668;2024-01-10T00:07:54;19.63;;;12.13;;
83840;SDS011;73868;52.172;10.668;2024-01-10T00:10:20;21.47;;;12.33;;
83840;SDS011;73868;52.172;10.668;2024-01-10T00:12:47;19.20;;;11.90;;
83840;SDS011;73868;52.172;10.668;2024-01-10T00:15:12;21.50;;;12.63;;
83840;SDS011;73868;52.172;10.668;2024-01-10T00:17:39;21.73;;;12.73;;
83840;SDS011;73868;52.172;10.668;2024-01-10T00:20:06;20.13;;;11.93;;
83840;SDS011;73868;52.172;10.668;2024-01-10T00:22:32;21.13;;;12.47;;
83840;SDS011;73868;52.172;10.668;2024-01-10T00:24:58;19.63;;;12.07;;
83840;SDS011;73868;52.172;10.668;2024-01-10T00:27:24;21.13;;;12.00;;
83840;SDS011;73868;52.172;10.668;2024-01-10T00:29:49;19.27;;;11.70;;
83840;SDS011;73868;52.172;10.668;2024-01-10T00:32:16;20.37;;;12.10;;
83840;SDS011;73868;52.172;10.668;2024-01-10T00:34:42;21.50;;;11.90;;
83840;SDS011;73868;52.172;10.668;2024-01-10T00:37:07;20.23;;;11.90;;
83840;SDS011;73868;52.172;10.668;2024-01-10T00:39:33;21.90;;;12.67;;
83840;SDS011;73868;52.172;10.668;2024-01-10T00:41:59;21.57;;;12.53;;
83840;SDS011;73868;52.172;10.668;2024-01-10T00:44:24;22.80;;;12.87;;
83840;SDS011;73868;52.172;10.668;2024-01-10T00:46:50;19.90;;;12.87;;
83840;SDS011;73868;52.172;10.668;2024-01-10T00:49:15;22.83;;;13.27;;
83840;SDS011;73868;52.172;10.668;2024-01-10T00:51:41;24.77;;;14.30;;
83840;SDS011;73868;52.172;10.668;2024-01-10T00:54:06;23.40;;;13.07;;
83840;SDS011;73868;52.172;10.668;2024-01-10T00:56:32;20.93;;;12.83;;
83840;SDS011;73868;52.172;10.668;2024-01-10T00:58:57;20.83;;;12.90;;
83840;SDS011;73868;52.172;10.668;2024-01-10T01:01:23;23.53;;;13.83;;
83840;SDS011;73868;52.172;10.668;2024-01-10T01:03:49;25.53;;;13.53;;
83840;SDS011;73868;52.172;10.668;2024-01-10T01:06:15;24.53;;;13.37;;
83840;SDS011;73868;52.172;10.668;2024-01-10T01:08:41;25.60;;;13.67;;
83840;SDS011;73868;52.172;10.668;2024-01-10T01:11:06;25.20;;;13.37;;
83840;SDS011;73868;52.172;10.668;2024-01-10T01:13:32;29.17;;;15.10;;
83840;SDS011;73868;52.172;10.668;2024-01-10T01:15:57;25.77;;;14.57;;
83840;SDS011;73868;52.172;10.668;2024-01-10T01:18:23;24.43;;;13.93;;
83840;SDS011;73868;52.172;10.668;2024-01-10T01:20:48;23.33;;;13.63;;
83840;SDS011;73868;52.172;10.668;2024-01-10T01:23:15;26.37;;;14.53;;
83840;SDS011;73868;52.172;10.668;2024-01-10T01:25:41;22.90;;;13.53;;
83840;SDS011;73868;52.172;10.668;2024-01-10T01:28:07;26.77;;;14.23;;
83840;SDS011;73868;52.172;10.668;2024-01-10T01:30:33;27.67;;;14.77;;
83840;SDS011;73868;52.172;10.668;2024-01-10T01:32:58;25.93;;;14.60;;
83840;SDS011;73868;52.172;10.668;2024-01-10T01:35:24;27.20;;;15.20;;
83840;SDS011;73868;52.172;10.668;2024-01-10T01:37:50;22.60;;;13.43;;
83840;SDS011;73868;52.172;10.668;2024-01-10T01:40:17;26.17;;;15.17;;
83840;SDS011;73868;52.172;10.668;2024-01-10T01:42:44;26.70;;;15.17;;
83840;SDS011;73868;52.172;10.668;2024-01-10T01:45:10;24.97;;;14.73;;
83840;SDS011;73868;52.172;10.668;2024-01-10T01:47:36;27.13;;;15.13;;
83840;SDS011;73868;52.172;10.668;2024-01-10T01:50:03;27.73;;;14.97;;
83840;SDS011;73868;52.172;10.668;2024-01-10T01:52:30;22.50;;;14.50;;
83840;SDS011;73868;52.172;10.668;2024-01-10T01:54:56;30.47;;;15.20;;
83840;SDS011;73868;52.172;10.668;2024-01-10T01:57:22;29.50;;;15.83;;
83840;SDS011;73868;52.172;10.668;2024-01-10T01:59:48;25.73;;;14.47;;
83840;SDS011;73868;52.172;10.668;2024-01-10T02:02:14;26.13;;;14.83;;
83840;SDS011;73868;52.172;10.668;2024-01-10T02:04:41;26.17;;;15.23;;
83840;SDS011;73868;52.172;10.668;2024-01-10T02:07:07;24.73;;;14.93;;
83840;SDS011;73868;52.172;10.668;2024-01-10T02:09:33;25.53;;;14.73;;
83840;SDS011;73868;52.172;10.668;2024-01-10T02:11:58;25.53;;;14.60;;
83840;SDS011;73868;52.172;10.668;2024-01-10T02:14:24;26.63;;;15.60;;
83840;SDS011;73868;52.172;10.668;2024-01-10T02:16:49;27.73;;;14.97;;
83840;SDS011;73868;52.172;10.668;2024-01-10T02:19:22;26.67;;;15.03;;
83840;SDS011;73868;52.172;10.668;2024-01-10T02:21:48;25.53;;;14.70;;
83840;SDS011;73868;52.172;10.668;2024-01-10T02:24:14;25.20;;;14.97;;
83840;SDS011;73868;52.172;10.668;2024-01-10T02:26:39;29.40;;;16.40;;
83840;SDS011;73868;52.172;10.668;2024-01-10T02:29:05;29.00;;;17.03;;
83840;SDS011;73868;52.172;10.668;2024-01-10T02:31:31;31.80;;;15.77;;
83840;SDS011;73868;52.172;10.668;2024-01-10T02:33:56;29.97;;;15.27;;
83840;SDS011;73868;52.172;10.668;2024-01-10T02:36:22;27.53;;;15.23;;
83840;SDS011;73868;52.172;10.668;2024-01-10T02:38:47;35.27;;;16.00;;
83840;SDS011;73868;52.172;10.668;2024-01-10T02:41:13;26.23;;;16.03;;
83840;SDS011;73868;52.172;10.668;2024-01-10T02:43:39;24.37;;;15.13;;
83840;SDS011;73868;52.172;10.668;2024-01-10T02:46:04;29.43;;;17.07;;
83840;SDS011;73868;52.172;10.668;2024-01-10T02:48:30;27.80;;;15.43;;
83840;SDS011;73868;52.172;10.668;2024-01-10T02:50:55;27.40;;;16.30;;
83840;SDS011;73868;52.172;10.668;2024-01-10T02:53:21;29.60;;;16.40;;
83840;SDS011;73868;52.172;10.668;2024-01-10T02:55:46;30.47;;;16.40;;
83840;SDS011;73868;52.172;10.668;2024-01-10T02:58:14;28.70;;;16.30;;
83840;SDS011;73868;52.172;10.668;2024-01-10T03:00:39;29.63;;;16.37;;
83840;SDS011;73868;52.172;10.668;2024-01-10T03:03:05;27.93;;;16.43;;
83840;SDS011;73868;52.172;10.668;2024-01-10T03:05:30;31.30;;;17.03;;
83840;SDS011;73868;52.172;10.668;2024-01-10T03:07:56;27.63;;;15.83;;
83840;SDS011;73868;52.172;10.668;2024-01-10T03:10:21;29.47;;;15.20;;
83840;SDS011;73868;52.172;10.668;2024-01-10T03:12:47;28.50;;;16.37;;
83840;SDS011;73868;52.172;10.668;2024-01-10T03:15:13;31.07;;;16.97;;
83840;SDS011;73868;52.172;10.668;2024-01-10T03:17:38;30.67;;;16.40;;
83840;SDS011;73868;52.172;10.668;2024-01-10T03:20:04;30.80;;;16.47;;
83840;SDS011;73868;52.172;10.668;2024-01-10T03:22:30;30.17;;;16.57;;
83840;SDS011;73868;52.172;10.668;2024-01-10T03:24:57;29.57;;;16.90;;
83840;SDS011;73868;52.172;10.668;2024-01-10T03:27:23;31.10;;;16.67;;
83840;SDS011;73868;52.172;10.668;2024-01-10T03:29:48;29.27;;;16.87;;
83840;SDS011;73868;52.172;10.668;2024-01-10T03:32:14;30.90;;;16.93;;
83840;SDS011;73868;52.172;10.668;2024-01-10T03:34:41;30.47;;;17.43;;
83840;SDS011;73868;52.172;10.668;2024-01-10T03:37:07;28.83;;;16.70;;
83840;SDS011;73868;52.172;10.668;2024-01-10T03:39:33;33.33;;;17.67;;
83840;SDS011;73868;52.172;10.668;2024-01-10T03:41:58;32.67;;;18.43;;
83840;SDS011;73868;52.172;10.668;2024-01-10T03:44:26;30.37;;;17.53;;
83840;SDS011;73868;52.172;10.668;2024-01-10T03:46:52;30.03;;;18.23;;
83840;SDS011;73868;52.172;10.668;2024-01-10T03:49:17;31.37;;;17.40;;
83840;SDS011;73868;52.172;10.668;2024-01-10T03:51:43;30.53;;;17.13;;
83840;SDS011;73868;52.172;10.668;2024-01-10T03:54:08;29.33;;;17.13;;
83840;SDS011;73868;52.172;10.668;2024-01-10T03:56:34;30.87;;;17.17;;
83840;SDS011;73868;52.172;10.668;2024-01-10T03:59:00;29.33;;;16.90;;
83840;SDS011;73868;52.172;10.668;2024-01-10T04:01:26;29.40;;;18.10;;
83840;SDS011;73868;52.172;10.668;2024-01-10T04:03:52;29.83;;;17.10;;
83840;SDS011;73868;52.172;10.668;2024-01-10T04:06:17;29.50;;;16.50;;
83840;SDS011;73868;52.172;10.668;2024-01-10T04:08:43;30.73;;;16.77;;
83840;SDS011;73868;52.172;10.668;2024-01-10T04:11:09;33.87;;;17.87;;
83840;SDS011;73868;52.172;10.668;2024-01-10T04:13:34;28.20;;;17.53;;
83840;SDS011;73868;52.172;10.668;2024-01-10T04:16:00;29.70;;;15.97;;
83840;SDS011;73868;52.172;10.668;2024-01-10T04:18:26;33.23;;;19.13;;
83840;SDS011;73868;52.172;10.668;2024-01-10T04:20:51;29.70;;;18.00;;
83840;SDS011;73868;52.172;10.668;2024-01-10T04:23:17;31.43;;;18.20;;
83840;SDS011;73868;52.172;10.668;2024-01-10T04:25:42;31.40;;;16.90;;
83840;SDS011;73868;52.172;10.668;2024-01-10T04:28:08;31.57;;;17.53;;
83840;SDS011;73868;52.172;10.668;2024-01-10T04:30:33;33.03;;;17.43;;
83840;SDS011;73868;52.172;10.668;2024-01-10T04:32:59;30.00;;;17.47;;
83840;SDS011;73868;52.172;10.668;2024-01-10T04:35:24;38.03;;;19.03;;
83840;SDS011;73868;52.172;10.668;2024-01-10T04:37:50;28.43;;;16.63;;
83840;SDS011;73868;52.172;10.668;2024-01-10T04:40:16;36.03;;;18.57;;
83840;SDS011;73868;52.172;10.668;2024-01-10T04:42:41;32.80;;;18.03;;
83840;SDS011;73868;52.172;10.668;2024-01-10T04:45:07;32.67;;;18.23;;
83840;SDS011;73868;52.172;10.668;2024-01-10T04:47:33;33.30;;;18.43;;
83840;SDS011;73868;52.172;10.668;2024-01-10T04:49:58;31.37;;;18.40;;
83840;SDS011;73868;52.172;10.668;2024-01-10T04:52:24;33.73;;;18.70;;
83840;SDS011;73868;52.172;10.668;2024-01-10T04:54:49;34.67;;;17.80;;
83840;SDS011;73868;52.172;10.668;2024-01-10T04:57:15;32.93;;;18.47;;
83840;SDS011;73868;52.172;10.668;2024-01-10T04:59:41;32.77;;;19.27;;
83840;SDS011;73868;52.172;10.668;2024-01-10T05:02:06;31.43;;;17.80;;
83840;SDS011;73868;52.172;10.668;2024-01-10T05:04:32;31.70;;;18.40;;
83840;SDS011;73868;52.172;10.668;2024-01-10T05:06:58;34.67;;;19.07;;
83840;SDS011;73868;52.172;10.668;2024-01-10T05:09:23;36.27;;;20.43;;
83840;SDS011;73868;52.172;10.668;2024-01-10T05:11:49;35.57;;;19.63;;
83840;SDS011;73868;52.172;10.668;2024-01-10T05:14:16;37.90;;;20.67;;
83840;SDS011;73868;52.172;10.668;2024-01-10T05:16:44;32.90;;;19.30;;
83840;SDS011;73868;52.172;10.668;2024-01-10T05:19:10;38.20;;;20.73;;
83840;SDS011;73868;52.172;10.668;2024-01-10T05:21:36;31.83;;;19.03;;
83840;SDS011;73868;52.172;10.668;2024-01-10T05:24:01;37.27;;;19.53;;
83840;SDS011;73868;52.172;10.668;2024-01-10T05:26:28;34.23;;;18.53;;
83840;SDS011;73868;52.172;10.668;2024-01-10T05:28:54;36.00;;;19.13;;
83840;SDS011;73868;52.172;10.668;2024-01-10T05:31:19;33.77;;;18.37;;
83840;SDS011;73868;52.172;10.668;2024-01-10T05:33:45;35.67;;;19.63;;
83840;SDS011;73868;52.172;10.668;2024-01-10T05:36:10;38.07;;;19.57;;
83840;SDS011;73868;52.172;10.668;2024-01-10T05:38:36;37.80;;;20.20;;
83840;SDS011;73868;52.172;10.668;2024-01-10T05:41:02;37.43;;;20.33;;
83840;SDS011;73868;52.172;10.668;2024-01-10T05:43:28;34.30;;;20.40;;
83840;SDS011;73868;52.172;10.668;2024-01-10T05:45:53;37.20;;;20.23;;
83840;SDS011;73868;52.172;10.668;2024-01-10T05:48:19;32.73;;;19.30;;
83840;SDS011;73868;52.172;10.668;2024-01-10T05:50:44;35.67;;;19.07;;
83840;SDS011;73868;52.172;10.668;2024-01-10T05:53:10;33.57;;;19.80;;
83840;SDS011;73868;52.172;10.668;2024-01-10T05:55:37;38.20;;;21.07;;
83840;SDS011;73868;52.172;10.668;2024-01-10T05:58:03;37.90;;;20.43;;
83840;SDS011;73868;52.172;10.668;2024-01-10T06:00:29;33.73;;;19.97;;
83840;SDS011;73868;52.172;10.668;2024-01-10T06:02:55;36.63;;;21.10;;
83840;SDS011;73868;52.172;10.668;2024-01-10T06:05:20;41.27;;;20.47;;
83840;SDS011;73868;52.172;10.668;2024-01-10T06:07:46;36.73;;;19.53;;
83840;SDS011;73868;52.172;10.668;2024-01-10T06:10:12;35.20;;;19.83;;
83840;SDS011;73868;52.172;10.668;2024-01-10T06:12:37;38.03;;;20.50;;
83840;SDS011;73868;52.172;10.668;2024-01-10T06:15:03;37.03;;;20.47;;
83840;SDS011;73868;52.172;10.668;2024-01-10T06:17:29;40.70;;;21.60;;
83840;SDS011;73868;52.172;10.668;2024-01-10T06:19:56;37.23;;;20.57;;
83840;SDS011;73868;52.172;10.668;2024-01-10T06:22:24;40.43;;;21.73;;
83840;SDS011;73868;52.172;10.668;2024-01-10T06:24:50;42.53;;;21.57;;
83840;SDS011;73868;52.172;10.668;2024-01-10T06:27:15;38.27;;;20.93;;
83840;SDS011;73868;52.172;10.668;2024-01-10T06:29:43;39.97;;;22.10;;
83840;SDS011;73868;52.172;10.668;2024-01-10T06:32:10;43.57;;;23.47;;
83840;SDS011;73868;52.172;10.668;2024-01-10T06:34:35;42.97;;;22.97;;
83840;SDS011;73868;52.172;10.668;2024-01-10T06:37:01;44.47;;;23.10;;
83840;SDS011;73868;52.172;10.668;2024-01-10T06:39:27;42.80;;;22.70;;
83840;SDS011;73868;52.172;10.668;2024-01-10T06:41:52;39.33;;;20.73;;
83840;SDS011;73868;52.172;10.668;2024-01-10T06:44:18;41.63;;;23.53;;
83840;SDS011;73868;52.172;10.668;2024-01-10T06:46:44;36.23;;;21.40;;
83840;SDS011;73868;52.172;10.668;2024-01-10T06:49:10;43.80;;;23.57;;
83840;SDS011;73868;52.172;10.668;2024-01-10T06:51:35;46.50;;;23.57;;
83840;SDS011;73868;52.172;10.668;2024-01-10T06:54:01;39.87;;;21.80;;
83840;SDS011;73868;52.172;10.668;2024-01-10T06:56:30;40.77;;;22.07;;
83840;SDS011;73868;52.172;10.668;2024-01-10T06:58:57;44.13;;;22.87;;
83840;SDS011;73868;52.172;10.668;2024-01-10T07:01:23;37.80;;;22.67;;
83840;SDS011;73868;52.172;10.668;2024-01-10T07:03:51;39.03;;;21.40;;
83840;SDS011;73868;52.172;10.668;2024-01-10T07:06:17;41.33;;;22.57;;
83840;SDS011;73868;52.172;10.668;2024-01-10T07:08:43;46.17;;;23.50;;
83840;SDS011;73868;52.172;10.668;2024-01-10T07:11:12;42.47;;;23.20;;
83840;SDS011;73868;52.172;10.668;2024-01-10T07:13:38;38.10;;;21.90;;
83840;SDS011;73868;52.172;10.668;2024-01-10T07:16:04;39.27;;;22.50;;
83840;SDS011;73868;52.172;10.668;2024-01-10T07:18:29;40.53;;;22.70;;
83840;SDS011;73868;52.172;10.668;2024-01-10T07:20:55;45.23;;;23.83;;
83840;SDS011;73868;52.172;10.668;2024-01-10T07:23:23;44.37;;;23.83;;
83840;SDS011;73868;52.172;10.668;2024-01-10T07:25:49;46.10;;;25.13;;
83840;SDS011;73868;52.172;10.668;2024-01-10T07:28:15;43.03;;;23.17;;
83840;SDS011;73868;52.172;10.668;2024-01-10T07:30:40;67.67;;;35.60;;
83840;SDS011;73868;52.172;10.668;2024-01-10T07:33:06;52.27;;;29.23;;
83840;SDS011;73868;52.172;10.668;2024-01-10T07:35:32;55.83;;;30.73;;
83840;SDS011;73868;52.172;10.668;2024-01-10T07:37:58;69.83;;;34.87;;
83840;SDS011;73868;52.172;10.668;2024-01-10T07:40:24;57.60;;;31.47;;
83840;SDS011;73868;52.172;10.668;2024-01-10T07:42:49;59.33;;;32.37;;
83840;SDS011;73868;52.172;10.668;2024-01-10T07:45:15;58.63;;;30.00;;
83840;SDS011;73868;52.172;10.668;2024-01-10T07:47:41;50.33;;;26.57;;
83840;SDS011;73868;52.172;10.668;2024-01-10T07:50:07;44.87;;;25.33;;
83840;SDS011;73868;52.172;10.668;2024-01-10T07:52:33;49.60;;;26.27;;
83840;SDS011;73868;52.172;10.668;2024-01-10T07:55:00;52.83;;;27.90;;
83840;SDS011;73868;52.172;10.668;2024-01-10T07:57:26;59.63;;;31.87;;
83840;SDS011;73868;52.172;10.668;2024-01-10T07:59:52;54.90;;;29.27;;
83840;SDS011;73868;52.172;10.668;2024-01-10T08:02:18;50.87;;;25.70;;
83840;SDS011;73868;52.172;10.668;2024-01-10T08:04:44;50.07;;;27.67;;
83840;SDS011;73868;52.172;10.668;2024-01-10T08:07:09;54.30;;;30.10;;
83840;SDS011;73868;52.172;10.668;2024-01-10T08:09:35;58.23;;;31.03;;
83840;SDS011;73868;52.172;10.668;2024-01-10T08:12:01;57.07;;;29.43;;
83840;SDS011;73868;52.172;10.668;2024-01-10T08:14:28;44.33;;;24.10;;
83840;SDS011;73868;52.172;10.668;2024-01-10T08:16:53;125.00;;;57.93;;
83840;SDS011;73868;52.172;10.668;2024-01-10T08:19:19;62.83;;;33.57;;
83840;SDS011;73868;52.172;10.668;2024-01-10T08:21:46;59.83;;;32.40;;
83840;SDS011;73868;52.172;10.668;2024-01-10T08:24:11;116.43;;;58.77;;
83840;SDS011;73868;52.172;10.668;2024-01-10T08:26:37;66.97;;;36.93;;
83840;SDS011;73868;52.172;10.668;2024-01-10T08:29:03;65.30;;;38.40;;
83840;SDS011;73868;52.172;10.668;2024-01-10T08:31:29;60.70;;;35.57;;
83840;SDS011;73868;52.172;10.668;2024-01-10T08:33:54;55.30;;;31.70;;
83840;SDS011;73868;52.172;10.668;2024-01-10T08:36:21;53.27;;;31.40;;
83840;SDS011;73868;52.172;10.668;2024-01-10T08:38:49;115.20;;;54.47;;
83840;SDS011;73868;52.172;10.668;2024-01-10T08:41:15;73.27;;;43.97;;
83840;SDS011;73868;52.172;10.668;2024-01-10T08:43:40;67.63;;;42.17;;
83840;SDS011;73868;52.172;10.668;2024-01-10T08:46:06;65.77;;;42.50;;
83840;SDS011;73868;52.172;10.668;2024-01-10T08:48:33;52.37;;;32.50;;
83840;SDS011;73868;52.172;10.668;2024-01-10T08:51:00;47.40;;;29.67;;
83840;SDS011;73868;52.172;10.668;2024-01-10T08:53:25;54.00;;;33.53;;
83840;SDS011;73868;52.172;10.668;2024-01-10T08:55:51;51.13;;;31.27;;
83840;SDS011;73868;52.172;10.668;2024-01-10T08:58:16;48.97;;;29.43;;
83840;SDS011;73868;52.172;10.668;2024-01-10T09:00:42;55.83;;;31.47;;
83840;SDS011;73868;52.172;10.668;2024-01-10T09:03:07;50.73;;;29.37;;
83840;SDS011;73868;52.172;10.668;2024-01-10T09:05:34;49.70;;;28.40;;
83840;SDS011;73868;52.172;10.668;2024-01-10T09:07:59;45.87;;;27.97;;
83840;SDS011;73868;52.172;10.668;2024-01-10T09:10:25;49.27;;;27.37;;
83840;SDS011;73868;52.172;10.668;2024-01-10T09:12:53;45.17;;;26.17;;
83840;SDS011;73868;52.172;10.668;2024-01-10T09:15:19;52.43;;;28.87;;
83840;SDS011;73868;52.172;10.668;2024-01-10T09:17:44;53.07;;;27.27;;
83840;SDS011;73868;52.172;10.668;2024-01-10T09:20:11;56.10;;;30.73;;
83840;SDS011;73868;52.172;10.668;2024-01-10T09:22:37;47.63;;;26.53;;
83840;SDS011;73868;52.172;10.668;2024-01-10T09:25:04;50.87;;;29.03;;
83840;SDS011;73868;52.172;10.668;2024-01-10T09:27:31;46.00;;;27.67;;
83840;SDS011;73868;52.172;10.668;2024-01-10T09:29:58;46.37;;;26.40;;
83840;SDS011;73868;52.172;10.668;2024-01-10T09:32:24;47.77;;;29.23;;
83840;SDS011;73868;52.172;10.668;2024-01-10T09:34:50;52.20;;;28.40;;
83840;SDS011;73868;52.172;10.668;2024-01-10T09:37:16;44.30;;;27.60;;
83840;SDS011;73868;52.172;10.668;2024-01-10T09:39:41;53.47;;;29.57;;
83840;SDS011;73868;52.172;10.668;2024-01-10T09:42:07;48.47;;;28.13;;
83840;SDS011;73868;52.172;10.668;2024-01-10T09:44:33;51.17;;;27.40;;
83840;SDS011;73868;52.172;10.668;2024-01-10T09:46:59;46.37;;;27.47;;
83840;SDS011;73868;52.172;10.668;2024-01-10T09:49:26;47.40;;;26.53;;
83840;SDS011;73868;52.172;10.668;2024-01-10T09:51:53;49.00;;;26.23;;
83840;SDS011;73868;52.172;10.668;2024-01-10T09:54:22;45.20;;;26.97;;
83840;SDS011;73868;52.172;10.668;2024-01-10T09:56:50;47.23;;;26.83;;
83840;SDS011;73868;52.172;10.668;2024-01-10T09:59:16;47.90;;;26.93;;
83840;SDS011;73868;52.172;10.668;2024-01-10T10:01:42;46.43;;;27.93;;
83840;SDS011;73868;52.172;10.668;2024-01-10T10:04:09;45.17;;;27.87;;
83840;SDS011;73868;52.172;10.668;2024-01-10T10:06:37;52.20;;;29.67;;
83840;SDS011;73868;52.172;10.668;2024-01-10T10:09:03;48.47;;;28.63;;
83840;SDS011;73868;52.172;10.668;2024-01-10T10:11:29;50.90;;;28.60;;
83840;SDS011;73868;52.172;10.668;2024-01-10T10:13:55;48.63;;;28.53;;
83840;SDS011;73868;52.172;10.668;2024-01-10T10:16:24;53.73;;;28.93;;
83840;SDS011;73868;52.172;10.668;2024-01-10T10:18:53;53.37;;;28.13;;
83840;SDS011;73868;52.172;10.668;2024-01-10T10:21:23;51.17;;;28.73;;
83840;SDS011;73868;52.172;10.668;2024-01-10T10:23:57;52.17;;;28.87;;
83840;SDS011;73868;52.172;10.668;2024-01-10T10:26:24;48.23;;;27.77;;
83840;SDS011;73868;52.172;10.668;2024-01-10T10:28:52;51.80;;;28.73;;
83840;SDS011;73868;52.172;10.668;2024-01-10T10:31:18;49.23;;;28.10;;
83840;SDS011;73868;52.172;10.668;2024-01-10T10:33:44;53.60;;;29.00;;
83840;SDS011;73868;52.172;10.668;2024-01-10T10:36:10;48.27;;;28.90;;
83840;SDS011;73868;52.172;10.668;2024-01-10T10:38:38;45.27;;;27.57;;
83840;SDS011;73868;52.172;10.668;2024-01-10T10:41:04;56.07;;;30.87;;
83840;SDS011;73868;52.172;10.668;2024-01-10T10:43:35;48.63;;;28.73;;
83840;SDS011;73868;52.172;10.668;2024-01-10T10:46:02;53.93;;;32.20;;
83840;SDS011;73868;52.172;10.668;2024-01-10T10:48:32;49.17;;;29.13;;
83840;SDS011;73868;52.172;10.668;2024-01-10T10:51:03;50.97;;;28.80;;
83840;SDS011;73868;52.172;10.668;2024-01-10T10:53:31;53.30;;;31.80;;
83840;SDS011;73868;52.172;10.668;2024-01-10T10:56:02;51.03;;;27.37;;
83840;SDS011;73868;52.172;10.668;2024-01-10T10:58:42;54.23;;;27.70;;
83840;SDS011;73868;52.172;10.668;2024-01-10T11:01:10;45.83;;;26.77;;
83840;SDS011;73868;52.172;10.668;2024-01-10T11:03:38;51.50;;;28.37;;
83840;SDS011;73868;52.172;10.668;2024-01-10T11:06:05;49.73;;;27.87;;
83840;SDS011;73868;52.172;10.668;2024-01-10T11:08:44;54.10;;;29.20;;
83840;SDS011;73868;52.172;10.668;2024-01-10T11:16:53;50.90;;;30.13;;
83840;SDS011;73868;52.172;10.668;2024-01-10T11:22:37;46.60;;;27.87;;
83840;SDS011;73868;52.172;10.668;2024-01-10T11:25:26;50.60;;;29.77;;
83840;SDS011;73868;52.172;10.668;2024-01-10T11:27:54;48.90;;;28.93;;
83840;SDS011;73868;52.172;10.668;2024-01-10T11:30:30;51.83;;;30.17;;
83840;SDS011;73868;52.172;10.668;2024-01-10T11:33:17;50.90;;;30.17;;
83840;SDS011;73868;52.172;10.668;2024-01-10T11:38:49;52.97;;;27.60;;
83840;SDS011;73868;52.172;10.668;2024-01-10T11:46:55;52.57;;;29.17;;
83840;SDS011;73868;52.172;10.668;2024-01-10T11:49:22;49.10;;;28.57;;
83840;SDS011;73868;52.172;10.668;2024-01-10T11:51:50;45.30;;;27.13;;
83840;SDS011;73868;52.172;10.668;2024-01-10T11:57:00;55.27;;;28.67;;
83840;SDS011;73868;52.172;10.668;2024-01-10T11:59:26;54.73;;;29.43;;
83840;SDS011;73868;52.172;10.668;2024-01-10T12:01:52;53.20;;;28.77;;
83840;SDS011;73868;52.172;10.668;2024-01-10T12:04:19;53.20;;;29.07;;
83840;SDS011;73868;52.172;10.668;2024-01-10T12:06:46;50.50;;;29.30;;
83840;SDS011;73868;52.172;10.668;2024-01-10T12:09:12;50.97;;;29.20;;
83840;SDS011;73868;52.172;10.668;2024-01-10T12:11:39;50.33;;;29.20;;
83840;SDS011;73868;52.172;10.668;2024-01-10T12:14:06;47.53;;;29.03;;
83840;SDS011;73868;52.172;10.668;2024-01-10T12:16:33;51.30;;;28.87;;
83840;SDS011;73868;52.172;10.668;2024-01-10T12:18:59;49.03;;;27.97;;
83840;SDS011;73868;52.172;10.668;2024-01-10T12:21:25;46.67;;;28.10;;
83840;SDS011;73868;52.172;10.668;2024-01-10T12:23:50;51.77;;;28.17;;
83840;SDS011;73868;52.172;10.668;2024-01-10T12:26:16;48.77;;;28.80;;
83840;SDS011;73868;52.172;10.668;2024-01-10T12:28:53;44.47;;;27.50;;
83840;SDS011;73868;52.172;10.668;2024-01-10T12:31:20;50.30;;;27.50;;
83840;SDS011;73868;52.172;10.668;2024-01-10T12:33:49;46.23;;;27.37;;
83840;SDS011;73868;52.172;10.668;2024-01-10T12:36:16;50.20;;;28.23;;
83840;SDS011;73868;52.172;10.668;2024-01-10T12:38:43;45.67;;;27.13;;
83840;SDS011;73868;52.172;10.668;2024-01-10T12:41:09;46.27;;;26.60;;
83840;SDS011;73868;52.172;10.668;2024-01-10T12:43:36;46.60;;;27.30;;
83840;SDS011;73868;52.172;10.668;2024-01-10T12:46:12;49.10;;;27.37;;
83840;SDS011;73868;52.172;10.668;2024-01-10T12:48:38;48.20;;;28.77;;
83840;SDS011;73868;52.172;10.668;2024-01-10T12:51:08;47.63;;;28.53;;
83840;SDS011;73868;52.172;10.668;2024-01-10T12:53:39;48.40;;;28.47;;
83840;SDS011;73868;52.172;10.668;2024-01-10T12:56:06;47.27;;;29.37;;
83840;SDS011;73868;52.172;10.668;2024-01-10T12:58:33;52.93;;;29.93;;
83840;SDS011;73868;52.172;10.668;2024-01-10T13:01:00;51.77;;;30.37;;
83840;SDS011;73868;52.172;10.668;2024-01-10T13:03:26;53.20;;;30.00;;
83840;SDS011;73868;52.172;10.668;2024-01-10T13:05:51;50.37;;;29.70;;
83840;SDS011;73868;52.172;10.668;2024-01-10T13:08:17;50.33;;;29.47;;
83840;SDS011;73868;52.172;10.668;2024-01-10T13:10:44;49.93;;;29.27;;
83840;SDS011;73868;52.172;10.668;2024-01-10T13:13:11;48.57;;;27.83;;
83840;SDS011;73868;52.172;10.668;2024-01-10T13:15:37;48.03;;;28.73;;
83840;SDS011;73868;52.172;10.668;2024-01-10T13:18:03;56.83;;;30.93;;
83840;SDS011;73868;52.172;10.668;2024-01-10T13:20:29;48.77;;;28.17;;
83840;SDS011;73868;52.172;10.668;2024-01-10T13:22:54;47.10;;;27.63;;
83840;SDS011;73868;52.172;10.668;2024-01-10T13:25:20;46.23;;;28.23;;
83840;SDS011;73868;52.172;10.668;2024-01-10T13:27:49;49.00;;;29.03;;
83840;SDS011;73868;52.172;10.668;2024-01-10T13:30:15;46.87;;;27.73;;
83840;SDS011;73868;52.172;10.668;2024-01-10T13:32:42;49.10;;;28.20;;
83840;SDS011;73868;52.172;10.668;2024-01-10T13:35:08;46.73;;;28.23;;
83840;SDS011;73868;52.172;10.668;2024-01-10T13:37:34;45.67;;;27.63;;
83840;SDS011;73868;52.172;10.668;2024-01-10T13:40:00;45.27;;;27.83;;
83840;SDS011;73868;52.172;10.668;2024-01-10T13:42:25;49.03;;;27.97;;
83840;SDS011;73868;52.172;10.668;2024-01-10T13:44:51;45.83;;;27.43;;
83840;SDS011;73868;52.172;10.668;2024-01-10T13:47:20;44.73;;;27.20;;
83840;SDS011;73868;52.172;10.668;2024-01-10T13:49:49;44.77;;;27.40;;
83840;SDS011;73868;52.172;10.668;2024-01-10T13:52:14;48.83;;;29.17;;
83840;SDS011;73868;52.172;10.668;2024-01-10T13:54:40;50.63;;;29.17;;
83840;SDS011;73868;52.172;10.668;2024-01-10T13:57:05;50.73;;;29.23;;
83840;SDS011;73868;52.172;10.668;2024-01-10T13:59:31;49.20;;;29.33;;
83840;SDS011;73868;52.172;10.668;2024-01-10T14:01:57;49.13;;;27.33;;
83840;SDS011;73868;52.172;10.668;2024-01-10T14:04:24;45.87;;;26.97;;
83840;SDS011;73868;52.172;10.668;2024-01-10T14:06:50;47.13;;;28.73;;
83840;SDS011;73868;52.172;10.668;2024-01-10T14:09:15;46.83;;;27.50;;
83840;SDS011;73868;52.172;10.668;2024-01-10T14:11:42;44.33;;;27.17;;
83840;SDS011;73868;52.172;10.668;2024-01-10T14:14:09;44.97;;;28.23;;
83840;SDS011;73868;52.172;10.668;2024-01-10T14:16:35;44.33;;;27.53;;
83840;SDS011;73868;52.172;10.668;2024-01-10T14:19:01;45.03;;;27.53;;
83840;SDS011;73868;52.172;10.668;2024-01-10T14:21:26;51.23;;;28.67;;
83840;SDS011;73868;52.172;10.668;2024-01-10T14:23:52;47.40;;;27.70;;